PWSweather.com
Personal Weather Stations
Station Observations
OPENSRS
Liberty Village, Toronto, ON M6K 3M1

Liberty VillageToronto, ON M6K 3M1

Lat: 43.63831, Lon: -79.42566

Elevation: 303

Station Type: Davis Instruments Vantage Pro 2

Latest ConditionsUpdated 3:05:06 AM EDT Wednesday, Sep 3, 2014
Currently Today's Max Today's Min Today's Average
Temperature 64.6°F18.1°C 67.3°F19.6°C 64.6°F18.1°C 65.7°F18.7°C
Dew Point 61.0°F16.1°C 63.2°F17.3°C 61.0°F16.1°C 61.9°F16.6°C
Winds Calm Calm 2.0 mph WNW3.2 kmh WNW - 0.2 mph 0.3 kmh
Wind Gusts 3.0 mph4.8 kmh 3.0 mph4.8 kmh - -
Humidity 88% 89% 86% 87%
Pressure 29.92 in1013.2 mb 29.92 in1013.2 mb 29.89 in1012.2 mb -
Hour Temp Dew Point Humidity Winds Wind Gusts Pressure Precip Precip Rate Daily Precip Total
03:05 AM 64.6°F18.1°C 61.0°F16.1°C 88% Calm Calm 3.0 mph4.8 kmh 29.92 in1013.2 mb 0.00 in0.0 mm 0.00 in/hr0.0 mm/hr 0.01 in0.3 mm
03:04 AM 64.6°F18.1°C 61.0°F16.1°C 88% Calm Calm 3.0 mph4.8 kmh 29.92 in1013.2 mb 0.00 in0.0 mm 0.00 in/hr0.0 mm/hr 0.01 in0.3 mm
03:03 AM 64.6°F18.1°C 61.0°F16.1°C 88% Calm Calm 3.0 mph4.8 kmh 29.92 in1013.2 mb 0.00 in0.0 mm 0.00 in/hr0.0 mm/hr 0.01 in0.3 mm
03:00 AM 64.7°F18.2°C 61.1°F16.2°C 88% Calm Calm -- 29.92 in1013.2 mb 0.00 in0.0 mm 0.00 in/hr0.0 mm/hr 0.01 in0.3 mm
02:59 AM 64.7°F18.2°C 61.4°F16.3°C 89% Calm Calm 2.0 mph3.2 kmh 29.91 in1012.9 mb 0.00 in0.0 mm 0.00 in/hr0.0 mm/hr 0.01 in0.3 mm
02:58 AM 64.7°F18.2°C 61.4°F16.3°C 89% 2.0 mph WNW3.2 kmh WNW 2.0 mph3.2 kmh 29.91 in1012.9 mb 0.00 in0.0 mm 0.00 in/hr0.0 mm/hr 0.01 in0.3 mm
02:55 AM 64.7°F18.2°C 61.4°F16.3°C 89% Calm Calm 2.0 mph3.2 kmh 29.91 in1012.9 mb 0.00 in0.0 mm 0.00 in/hr0.0 mm/hr 0.01 in0.3 mm
02:54 AM 64.7°F18.2°C 61.1°F16.2°C 88% 1.0 mph WNW1.6 kmh WNW 2.0 mph3.2 kmh 29.91 in1012.9 mb 0.00 in0.0 mm 0.00 in/hr0.0 mm/hr 0.01 in0.3 mm
02:53 AM 64.7°F18.2°C 61.4°F16.3°C 89% Calm Calm 2.0 mph3.2 kmh 29.91 in1012.9 mb 0.00 in0.0 mm 0.00 in/hr0.0 mm/hr 0.01 in0.3 mm
02:50 AM 64.7°F18.2°C 61.4°F16.3°C 89% 1.0 mph WNW1.6 kmh WNW 2.0 mph3.2 kmh 29.91 in1012.9 mb 0.00 in0.0 mm 0.00 in/hr0.0 mm/hr 0.01 in0.3 mm
02:49 AM 64.7°F18.2°C 61.4°F16.3°C 89% Calm Calm 2.0 mph3.2 kmh 29.91 in1012.9 mb 0.00 in0.0 mm 0.00 in/hr0.0 mm/hr 0.01 in0.3 mm
02:48 AM 64.8°F18.2°C 61.5°F16.4°C 89% 2.0 mph WNW3.2 kmh WNW 2.0 mph3.2 kmh 29.91 in1012.9 mb 0.00 in0.0 mm 0.00 in/hr0.0 mm/hr 0.01 in0.3 mm
02:45 AM 64.8°F18.2°C 61.5°F16.4°C 89% 1.0 mph WNW1.6 kmh WNW 2.0 mph3.2 kmh 29.91 in1012.9 mb 0.00 in0.0 mm 0.00 in/hr0.0 mm/hr 0.01 in0.3 mm
02:44 AM 64.8°F18.2°C 61.5°F16.4°C 89% 1.0 mph WNW1.6 kmh WNW 2.0 mph3.2 kmh 29.91 in1012.9 mb 0.00 in0.0 mm 0.00 in/hr0.0 mm/hr 0.01 in0.3 mm
02:43 AM 64.8°F18.2°C 61.2°F16.2°C 88% Calm Calm 2.0 mph3.2 kmh 29.91 in1012.9 mb 0.00 in0.0 mm 0.00 in/hr0.0 mm/hr 0.01 in0.3 mm
02:40 AM 64.8°F18.2°C 61.2°F16.2°C 88% Calm Calm 2.0 mph3.2 kmh 29.91 in1012.9 mb 0.00 in0.0 mm 0.00 in/hr0.0 mm/hr 0.01 in0.3 mm
02:39 AM 64.8°F18.2°C 61.2°F16.2°C 88% Calm Calm 2.0 mph3.2 kmh 29.91 in1012.9 mb 0.00 in0.0 mm 0.00 in/hr0.0 mm/hr 0.01 in0.3 mm
02:38 AM 64.8°F18.2°C 61.2°F16.2°C 88% Calm Calm 2.0 mph3.2 kmh 29.91 in1012.9 mb 0.00 in0.0 mm 0.00 in/hr0.0 mm/hr 0.01 in0.3 mm
02:35 AM 64.8°F18.2°C 61.2°F16.2°C 88% Calm Calm 2.0 mph3.2 kmh 29.91 in1012.9 mb 0.00 in0.0 mm 0.00 in/hr0.0 mm/hr 0.01 in0.3 mm
02:34 AM 64.8°F18.2°C 61.2°F16.2°C 88% 1.0 mph WNW1.6 kmh WNW 2.0 mph3.2 kmh 29.91 in1012.9 mb 0.00 in0.0 mm 0.00 in/hr0.0 mm/hr 0.01 in0.3 mm
02:33 AM 64.8°F18.2°C 61.2°F16.2°C 88% Calm Calm 2.0 mph3.2 kmh 29.91 in1012.9 mb 0.00 in0.0 mm 0.00 in/hr0.0 mm/hr 0.01 in0.3 mm
02:30 AM 64.9°F18.3°C 61.3°F16.3°C 88% Calm Calm 2.0 mph3.2 kmh 29.91 in1012.9 mb 0.00 in0.0 mm 0.00 in/hr0.0 mm/hr 0.01 in0.3 mm
02:29 AM 64.9°F18.3°C 61.3°F16.3°C 88% Calm Calm 2.0 mph3.2 kmh 29.91 in1012.9 mb 0.00 in0.0 mm 0.00 in/hr0.0 mm/hr 0.01 in0.3 mm
02:28 AM 64.9°F18.3°C 61.3°F16.3°C 88% Calm Calm 2.0 mph3.2 kmh 29.91 in1012.9 mb 0.00 in0.0 mm 0.00 in/hr0.0 mm/hr 0.01 in0.3 mm
02:25 AM 65.0°F18.3°C 61.4°F16.3°C 88% 1.0 mph WNW1.6 kmh WNW 2.0 mph3.2 kmh 29.91 in1012.9 mb 0.00 in0.0 mm 0.00 in/hr0.0 mm/hr 0.01 in0.3 mm
02:24 AM 65.1°F18.4°C 61.5°F16.4°C 88% Calm Calm 2.0 mph3.2 kmh 29.91 in1012.9 mb 0.00 in0.0 mm 0.00 in/hr0.0 mm/hr 0.01 in0.3 mm
02:23 AM 65.1°F18.4°C 61.5°F16.4°C 88% 1.0 mph WNW1.6 kmh WNW 2.0 mph3.2 kmh 29.91 in1012.9 mb 0.00 in0.0 mm 0.00 in/hr0.0 mm/hr 0.01 in0.3 mm
02:20 AM 65.2°F18.4°C 61.6°F16.4°C 88% 1.0 mph WNW1.6 kmh WNW 2.0 mph3.2 kmh 29.91 in1012.9 mb 0.00 in0.0 mm 0.00 in/hr0.0 mm/hr 0.01 in0.3 mm
02:19 AM 65.2°F18.4°C 61.6°F16.4°C 88% 1.0 mph WNW1.6 kmh WNW 2.0 mph3.2 kmh 29.91 in1012.9 mb 0.00 in0.0 mm 0.00 in/hr0.0 mm/hr 0.01 in0.3 mm
02:18 AM 65.2°F18.4°C 61.6°F16.4°C 88% Calm Calm 1.0 mph1.6 kmh 29.91 in1012.9 mb 0.00 in0.0 mm 0.00 in/hr0.0 mm/hr 0.01 in0.3 mm
02:15 AM 65.3°F18.5°C 61.3°F16.3°C 87% Calm Calm 1.0 mph1.6 kmh 29.91 in1012.9 mb 0.00 in0.0 mm 0.00 in/hr0.0 mm/hr 0.01 in0.3 mm
02:14 AM 65.3°F18.5°C 61.3°F16.3°C 87% Calm Calm 1.0 mph1.6 kmh 29.91 in1012.9 mb 0.00 in0.0 mm 0.00 in/hr0.0 mm/hr 0.01 in0.3 mm
02:13 AM 65.3°F18.5°C 61.7°F16.5°C 88% Calm Calm 1.0 mph1.6 kmh 29.91 in1012.9 mb 0.00 in0.0 mm 0.00 in/hr0.0 mm/hr 0.01 in0.3 mm
02:10 AM 65.4°F18.6°C 61.4°F16.3°C 87% Calm Calm 1.0 mph1.6 kmh 29.91 in1012.9 mb 0.00 in0.0 mm 0.00 in/hr0.0 mm/hr 0.01 in0.3 mm
02:09 AM 65.4°F18.6°C 61.4°F16.3°C 87% Calm Calm 1.0 mph1.6 kmh 29.91 in1012.9 mb 0.00 in0.0 mm 0.00 in/hr0.0 mm/hr 0.01 in0.3 mm
02:08 AM 65.4°F18.6°C 61.4°F16.3°C 87% Calm Calm 1.0 mph1.6 kmh 29.91 in1012.9 mb 0.00 in0.0 mm 0.00 in/hr0.0 mm/hr 0.01 in0.3 mm
02:05 AM 65.4°F18.6°C 61.4°F16.3°C 87% Calm Calm 1.0 mph1.6 kmh 29.91 in1012.9 mb 0.00 in0.0 mm 0.00 in/hr0.0 mm/hr 0.01 in0.3 mm
02:04 AM 65.4°F18.6°C 61.4°F16.3°C 87% Calm Calm 1.0 mph1.6 kmh 29.91 in1012.9 mb 0.00 in0.0 mm 0.00 in/hr0.0 mm/hr 0.01 in0.3 mm
02:03 AM 65.5°F18.6°C 61.5°F16.4°C 87% Calm Calm 1.0 mph1.6 kmh 29.91 in1012.9 mb 0.00 in0.0 mm 0.00 in/hr0.0 mm/hr 0.01 in0.3 mm
02:00 AM 65.5°F18.6°C 61.5°F16.4°C 87% Calm Calm 1.0 mph1.6 kmh 29.91 in1012.9 mb 0.00 in0.0 mm 0.00 in/hr0.0 mm/hr 0.01 in0.3 mm
01:59 AM 65.6°F18.7°C 61.6°F16.4°C 87% Calm Calm 3.0 mph4.8 kmh 29.91 in1012.9 mb 0.01 in0.3 mm 0.00 in/hr0.0 mm/hr 0.01 in0.3 mm
01:58 AM 65.6°F18.7°C 61.6°F16.4°C 87% Calm Calm 3.0 mph4.8 kmh 29.91 in1012.9 mb 0.01 in0.3 mm 0.00 in/hr0.0 mm/hr 0.01 in0.3 mm
01:55 AM 65.6°F18.7°C 61.6°F16.4°C 87% 1.0 mph WNW1.6 kmh WNW 3.0 mph4.8 kmh 29.91 in1012.9 mb 0.01 in0.3 mm 0.00 in/hr0.0 mm/hr 0.01 in0.3 mm
01:54 AM 65.6°F18.7°C 61.6°F16.4°C 87% Calm Calm 3.0 mph4.8 kmh 29.91 in1012.9 mb 0.01 in0.3 mm 0.00 in/hr0.0 mm/hr 0.01 in0.3 mm
01:53 AM 65.6°F18.7°C 61.6°F16.4°C 87% Calm Calm 3.0 mph4.8 kmh 29.91 in1012.9 mb 0.01 in0.3 mm 0.00 in/hr0.0 mm/hr 0.01 in0.3 mm
01:50 AM 65.7°F18.7°C 61.7°F16.5°C 87% Calm Calm 3.0 mph4.8 kmh 29.91 in1012.9 mb 0.01 in0.3 mm 0.00 in/hr0.0 mm/hr 0.01 in0.3 mm
01:49 AM 65.7°F18.7°C 61.7°F16.5°C 87% Calm Calm 3.0 mph4.8 kmh 29.91 in1012.9 mb 0.01 in0.3 mm 0.00 in/hr0.0 mm/hr 0.01 in0.3 mm
01:48 AM 65.7°F18.7°C 61.7°F16.5°C 87% Calm Calm 3.0 mph4.8 kmh 29.91 in1012.9 mb 0.01 in0.3 mm 0.00 in/hr0.0 mm/hr 0.01 in0.3 mm
01:45 AM 65.8°F18.8°C 61.8°F16.6°C 87% Calm Calm 3.0 mph4.8 kmh 29.91 in1012.9 mb 0.01 in0.3 mm 0.00 in/hr0.0 mm/hr 0.01 in0.3 mm
01:44 AM 65.7°F18.7°C 61.7°F16.5°C 87% Calm Calm 3.0 mph4.8 kmh 29.91 in1012.9 mb 0.01 in0.3 mm 0.00 in/hr0.0 mm/hr 0.01 in0.3 mm
01:43 AM 65.8°F18.8°C 61.8°F16.6°C 87% Calm Calm 3.0 mph4.8 kmh 29.91 in1012.9 mb 0.01 in0.3 mm 0.00 in/hr0.0 mm/hr 0.01 in0.3 mm
01:40 AM 65.8°F18.8°C 61.8°F16.6°C 87% Calm Calm 3.0 mph4.8 kmh 29.91 in1012.9 mb 0.01 in0.3 mm 0.00 in/hr0.0 mm/hr 0.01 in0.3 mm
01:39 AM 65.8°F18.8°C 61.8°F16.6°C 87% Calm Calm 3.0 mph4.8 kmh 29.91 in1012.9 mb 0.01 in0.3 mm 0.00 in/hr0.0 mm/hr 0.01 in0.3 mm
01:38 AM 65.8°F18.8°C 61.8°F16.6°C 87% Calm Calm 3.0 mph4.8 kmh 29.91 in1012.9 mb 0.01 in0.3 mm 0.00 in/hr0.0 mm/hr 0.01 in0.3 mm
01:35 AM 65.8°F18.8°C 61.8°F16.6°C 87% Calm Calm 3.0 mph4.8 kmh 29.91 in1012.9 mb 0.01 in0.3 mm 0.00 in/hr0.0 mm/hr 0.01 in0.3 mm
01:34 AM 65.8°F18.8°C 61.8°F16.6°C 87% 1.0 mph WNW1.6 kmh WNW 3.0 mph4.8 kmh 29.91 in1012.9 mb 0.01 in0.3 mm 0.00 in/hr0.0 mm/hr 0.01 in0.3 mm
01:33 AM 65.8°F18.8°C 61.8°F16.6°C 87% Calm Calm 3.0 mph4.8 kmh 29.91 in1012.9 mb 0.01 in0.3 mm 0.00 in/hr0.0 mm/hr 0.01 in0.3 mm
01:30 AM 65.8°F18.8°C 61.8°F16.6°C 87% Calm Calm 3.0 mph4.8 kmh 29.91 in1012.9 mb 0.01 in0.3 mm 0.00 in/hr0.0 mm/hr 0.01 in0.3 mm
01:29 AM 65.8°F18.8°C 61.8°F16.6°C 87% Calm Calm 3.0 mph4.8 kmh 29.91 in1012.9 mb 0.01 in0.3 mm 0.00 in/hr0.0 mm/hr 0.01 in0.3 mm
01:28 AM 65.8°F18.8°C 61.8°F16.6°C 87% Calm Calm 3.0 mph4.8 kmh 29.91 in1012.9 mb 0.01 in0.3 mm 0.00 in/hr0.0 mm/hr 0.01 in0.3 mm
01:25 AM 65.8°F18.8°C 61.8°F16.6°C 87% Calm Calm 3.0 mph4.8 kmh 29.91 in1012.9 mb 0.01 in0.3 mm 0.00 in/hr0.0 mm/hr 0.01 in0.3 mm
01:24 AM 65.9°F18.8°C 61.9°F16.6°C 87% Calm Calm 3.0 mph4.8 kmh 29.91 in1012.9 mb 0.01 in0.3 mm 0.00 in/hr0.0 mm/hr 0.01 in0.3 mm
01:23 AM 65.9°F18.8°C 61.9°F16.6°C 87% Calm Calm 3.0 mph4.8 kmh 29.91 in1012.9 mb 0.01 in0.3 mm 0.00 in/hr0.0 mm/hr 0.01 in0.3 mm
01:20 AM 65.9°F18.8°C 61.9°F16.6°C 87% Calm Calm 3.0 mph4.8 kmh 29.91 in1012.9 mb 0.01 in0.3 mm 0.00 in/hr0.0 mm/hr 0.01 in0.3 mm
01:19 AM 65.9°F18.8°C 61.9°F16.6°C 87% Calm Calm 3.0 mph4.8 kmh 29.91 in1012.9 mb 0.01 in0.3 mm 0.00 in/hr0.0 mm/hr 0.01 in0.3 mm
01:18 AM 65.9°F18.8°C 61.9°F16.6°C 87% Calm Calm 3.0 mph4.8 kmh 29.91 in1012.9 mb 0.01 in0.3 mm 0.00 in/hr0.0 mm/hr 0.01 in0.3 mm
01:15 AM 66.0°F18.9°C 62.0°F16.7°C 87% Calm Calm 3.0 mph4.8 kmh 29.91 in1012.9 mb 0.01 in0.3 mm 0.00 in/hr0.0 mm/hr 0.01 in0.3 mm
01:14 AM 66.0°F18.9°C 62.0°F16.7°C 87% Calm Calm 3.0 mph4.8 kmh 29.91 in1012.9 mb 0.01 in0.3 mm 0.00 in/hr0.0 mm/hr 0.01 in0.3 mm
01:13 AM 66.0°F18.9°C 62.0°F16.7°C 87% Calm Calm 3.0 mph4.8 kmh 29.91 in1012.9 mb 0.01 in0.3 mm 0.00 in/hr0.0 mm/hr 0.01 in0.3 mm
01:10 AM 66.0°F18.9°C 62.4°F16.9°C 88% Calm Calm 3.0 mph4.8 kmh 29.91 in1012.9 mb 0.01 in0.3 mm 0.00 in/hr0.0 mm/hr 0.01 in0.3 mm
01:09 AM 66.0°F18.9°C 62.4°F16.9°C 88% Calm Calm 3.0 mph4.8 kmh 29.90 in1012.5 mb 0.01 in0.3 mm 0.00 in/hr0.0 mm/hr 0.01 in0.3 mm
01:08 AM 65.9°F18.8°C 62.3°F16.8°C 88% Calm Calm 3.0 mph4.8 kmh 29.90 in1012.5 mb 0.01 in0.3 mm 0.00 in/hr0.0 mm/hr 0.01 in0.3 mm
01:05 AM 65.9°F18.8°C 62.3°F16.8°C 88% Calm Calm 3.0 mph4.8 kmh 29.90 in1012.5 mb 0.01 in0.3 mm 0.00 in/hr0.0 mm/hr 0.01 in0.3 mm
01:04 AM 65.9°F18.8°C 62.3°F16.8°C 88% Calm Calm 3.0 mph4.8 kmh 29.90 in1012.5 mb 0.01 in0.3 mm 0.00 in/hr0.0 mm/hr 0.01 in0.3 mm
01:03 AM 65.8°F18.8°C 62.2°F16.8°C 88% 1.0 mph WNW1.6 kmh WNW 3.0 mph4.8 kmh 29.90 in1012.5 mb 0.01 in0.3 mm 0.00 in/hr0.0 mm/hr 0.01 in0.3 mm
01:00 AM 65.9°F18.8°C 62.3°F16.8°C 88% Calm Calm -- 29.90 in1012.5 mb 0.01 in0.3 mm 0.00 in/hr0.0 mm/hr 0.01 in0.3 mm
12:59 AM 65.9°F18.8°C 62.3°F16.8°C 88% 1.0 mph WNW1.6 kmh WNW 2.0 mph3.2 kmh 29.90 in1012.5 mb 0.01 in0.3 mm 0.00 in/hr0.0 mm/hr 0.01 in0.3 mm
12:58 AM 65.9°F18.8°C 62.3°F16.8°C 88% Calm Calm 2.0 mph3.2 kmh 29.90 in1012.5 mb 0.01 in0.3 mm 0.00 in/hr0.0 mm/hr 0.01 in0.3 mm
12:55 AM 65.9°F18.8°C 62.3°F16.8°C 88% Calm Calm 2.0 mph3.2 kmh 29.90 in1012.5 mb 0.01 in0.3 mm 0.00 in/hr0.0 mm/hr 0.01 in0.3 mm
12:54 AM 65.9°F18.8°C 62.3°F16.8°C 88% Calm Calm 2.0 mph3.2 kmh 29.90 in1012.5 mb 0.01 in0.3 mm 0.00 in/hr0.0 mm/hr 0.01 in0.3 mm
12:53 AM 66.0°F18.9°C 62.4°F16.9°C 88% Calm Calm 2.0 mph3.2 kmh 29.90 in1012.5 mb 0.01 in0.3 mm 0.00 in/hr0.0 mm/hr 0.01 in0.3 mm
12:50 AM 66.0°F18.9°C 62.4°F16.9°C 88% Calm Calm 2.0 mph3.2 kmh 29.90 in1012.5 mb 0.01 in0.3 mm 0.00 in/hr0.0 mm/hr 0.01 in0.3 mm
12:49 AM 66.0°F18.9°C 62.4°F16.9°C 88% Calm Calm 2.0 mph3.2 kmh 29.90 in1012.5 mb 0.01 in0.3 mm 0.00 in/hr0.0 mm/hr 0.01 in0.3 mm
12:48 AM 66.0°F18.9°C 62.4°F16.9°C 88% 1.0 mph WNW1.6 kmh WNW 2.0 mph3.2 kmh 29.90 in1012.5 mb 0.01 in0.3 mm 0.00 in/hr0.0 mm/hr 0.01 in0.3 mm
12:45 AM 66.0°F18.9°C 62.4°F16.9°C 88% Calm Calm 2.0 mph3.2 kmh 29.90 in1012.5 mb 0.01 in0.3 mm 0.00 in/hr0.0 mm/hr 0.01 in0.3 mm
12:44 AM 66.0°F18.9°C 62.4°F16.9°C 88% Calm Calm 2.0 mph3.2 kmh 29.89 in1012.2 mb 0.01 in0.3 mm 0.00 in/hr0.0 mm/hr 0.01 in0.3 mm
12:43 AM 66.0°F18.9°C 62.4°F16.9°C 88% Calm Calm 2.0 mph3.2 kmh 29.89 in1012.2 mb 0.01 in0.3 mm 0.20 in/hr5.1 mm/hr 0.01 in0.3 mm
12:40 AM 66.1°F18.9°C 62.5°F16.9°C 88% Calm Calm 2.0 mph3.2 kmh 29.89 in1012.2 mb 0.00 in0.0 mm 0.00 in/hr0.0 mm/hr 0.00 in0.0 mm
12:39 AM 66.1°F18.9°C 62.5°F16.9°C 88% Calm Calm 2.0 mph3.2 kmh 29.89 in1012.2 mb 0.00 in0.0 mm 0.00 in/hr0.0 mm/hr 0.00 in0.0 mm
12:38 AM 66.1°F18.9°C 62.5°F16.9°C 88% Calm Calm 2.0 mph3.2 kmh 29.89 in1012.2 mb 0.00 in0.0 mm 0.00 in/hr0.0 mm/hr 0.00 in0.0 mm
12:35 AM 66.1°F18.9°C 62.1°F16.7°C 87% Calm Calm 2.0 mph3.2 kmh 29.89 in1012.2 mb 0.00 in0.0 mm 0.00 in/hr0.0 mm/hr 0.00 in0.0 mm
12:34 AM 66.1°F18.9°C 62.1°F16.7°C 87% Calm Calm 2.0 mph3.2 kmh 29.89 in1012.2 mb 0.00 in0.0 mm 0.00 in/hr0.0 mm/hr 0.00 in0.0 mm
12:33 AM 66.2°F19.0°C 62.2°F16.8°C 87% Calm Calm 2.0 mph3.2 kmh 29.89 in1012.2 mb 0.00 in0.0 mm 0.00 in/hr0.0 mm/hr 0.00 in0.0 mm
12:30 AM 66.2°F19.0°C 62.2°F16.8°C 87% 1.0 mph WNW1.6 kmh WNW 2.0 mph3.2 kmh 29.89 in1012.2 mb 0.00 in0.0 mm 0.00 in/hr0.0 mm/hr 0.00 in0.0 mm
12:29 AM 66.2°F19.0°C 62.2°F16.8°C 87% Calm Calm 2.0 mph3.2 kmh 29.89 in1012.2 mb 0.00 in0.0 mm 0.00 in/hr0.0 mm/hr 0.00 in0.0 mm
12:28 AM 66.2°F19.0°C 62.2°F16.8°C 87% Calm Calm 2.0 mph3.2 kmh 29.89 in1012.2 mb 0.00 in0.0 mm 0.00 in/hr0.0 mm/hr 0.00 in0.0 mm
12:25 AM 66.3°F19.1°C 62.3°F16.8°C 87% Calm Calm 2.0 mph3.2 kmh 29.89 in1012.2 mb 0.00 in0.0 mm 0.00 in/hr0.0 mm/hr 0.00 in0.0 mm
12:24 AM 66.4°F19.1°C 62.4°F16.9°C 87% Calm Calm 2.0 mph3.2 kmh 29.89 in1012.2 mb 0.00 in0.0 mm 0.00 in/hr0.0 mm/hr 0.00 in0.0 mm
12:23 AM 66.5°F19.2°C 62.5°F16.9°C 87% Calm Calm 2.0 mph3.2 kmh 29.89 in1012.2 mb 0.00 in0.0 mm 0.00 in/hr0.0 mm/hr 0.00 in0.0 mm
12:20 AM 66.6°F19.2°C 62.6°F17.0°C 87% Calm Calm 2.0 mph3.2 kmh 29.89 in1012.2 mb 0.00 in0.0 mm 0.00 in/hr0.0 mm/hr 0.00 in0.0 mm
12:19 AM 66.6°F19.2°C 62.6°F17.0°C 87% Calm Calm 2.0 mph3.2 kmh 29.89 in1012.2 mb 0.00 in0.0 mm 0.00 in/hr0.0 mm/hr 0.00 in0.0 mm
12:18 AM 66.7°F19.3°C 62.7°F17.1°C 87% Calm Calm 2.0 mph3.2 kmh 29.89 in1012.2 mb 0.00 in0.0 mm 0.00 in/hr0.0 mm/hr 0.00 in0.0 mm
12:15 AM 66.9°F19.4°C 62.6°F17.0°C 86% 1.0 mph WNW1.6 kmh WNW 2.0 mph3.2 kmh 29.89 in1012.2 mb 0.00 in0.0 mm 0.00 in/hr0.0 mm/hr 0.00 in0.0 mm
12:14 AM 66.9°F19.4°C 62.9°F17.2°C 87% Calm Calm 2.0 mph3.2 kmh 29.89 in1012.2 mb 0.00 in0.0 mm 0.00 in/hr0.0 mm/hr 0.00 in0.0 mm
12:13 AM 66.9°F19.4°C 62.6°F17.0°C 86% Calm Calm 2.0 mph3.2 kmh 29.89 in1012.2 mb 0.00 in0.0 mm 0.00 in/hr0.0 mm/hr 0.00 in0.0 mm
12:10 AM 67.1°F19.5°C 62.8°F17.1°C 86% 1.0 mph WNW1.6 kmh WNW 1.0 mph1.6 kmh 29.89 in1012.2 mb 0.00 in0.0 mm 0.00 in/hr0.0 mm/hr 0.00 in0.0 mm
12:09 AM 67.1°F19.5°C 62.8°F17.1°C 86% Calm Calm 1.0 mph1.6 kmh 29.89 in1012.2 mb 0.00 in0.0 mm 0.00 in/hr0.0 mm/hr 0.00 in0.0 mm
12:08 AM 67.2°F19.6°C 63.2°F17.3°C 87% Calm Calm 1.0 mph1.6 kmh 29.89 in1012.2 mb 0.00 in0.0 mm 0.00 in/hr0.0 mm/hr 0.00 in0.0 mm
12:05 AM 67.2°F19.6°C 62.9°F17.2°C 86% Calm Calm -- 29.89 in1012.2 mb 0.00 in0.0 mm 0.00 in/hr0.0 mm/hr 0.00 in0.0 mm
12:04 AM 67.2°F19.6°C 62.9°F17.2°C 86% Calm Calm -- 29.89 in1012.2 mb 0.00 in0.0 mm 0.00 in/hr0.0 mm/hr 0.00 in0.0 mm
12:03 AM 67.2°F19.6°C 62.9°F17.2°C 86% Calm Calm -- 29.89 in1012.2 mb 0.00 in0.0 mm 0.00 in/hr0.0 mm/hr 0.00 in0.0 mm
12:00 AM 67.3°F19.6°C 63.0°F17.2°C 86% Calm Calm -- 29.89 in1012.2 mb 0.00 in0.0 mm 0.00 in/hr0.0 mm/hr 0.00 in0.0 mm